Arklow Spray — C6VK8 — position and weather

sailwx.info

Track history (hours):
 
Tides and Currents Weather Stations Pressure Air Temp Water Temp Dewpoint Dewpoint Depression Visibility Wind Speed Wind Dir Waves Ship Positions

Arklow Spray

Last reported at 2018-Apr-26 09:25 UTC. Time now 2018-Apr-26 09:43 UTC.
Position N 53°54' E 011°28'.

Length 90 m; draft 2.7 m.

Type: Cargo ship. MMSI: 309914000.

Date/timePositionNaut miles runAvg speedWind from/ knotsBaromVisibWave heightAir tempDewpointWater temp
2018-Apr-26 09:25N 53°54' E 011°28'0 0.0
2018-Apr-26 08:58N 53°54' E 011°28'0 0.0
2018-Apr-26 08:28N 53°54' E 011°28'0 0.0
2018-Apr-26 07:58N 53°54' E 011°28'0 0.0
2018-Apr-26 07:28N 53°54' E 011°28'0 0.0
2018-Apr-26 06:58N 53°54' E 011°28'0 0.0
2018-Apr-26 06:28N 53°54' E 011°28'0 0.0
2018-Apr-26 05:58N 53°54' E 011°28'0 0.0
2018-Apr-26 05:28N 53°54' E 011°28'0 0.0
2018-Apr-26 04:58N 53°54' E 011°28'0 0.0
2018-Apr-26 04:28N 53°54' E 011°28'0 0.0
2018-Apr-26 03:58N 53°54' E 011°28'0 0.0
2018-Apr-26 03:28N 53°54' E 011°28'0 0.0
2018-Apr-26 02:58N 53°54' E 011°28'0 0.0
2018-Apr-26 02:28N 53°54' E 011°28'0 0.0
2018-Apr-26 01:58N 53°54' E 011°28'0 0.0
2018-Apr-26 01:30N 53°54' E 011°28'0 0.0
2018-Apr-26 01:00N 53°54' E 011°28'1 1.6
2018-Apr-26 00:30N 53°54' E 011°27'5 9.7
2018-Apr-26 00:00N 53°58' E 011°22'510.0
2018-Apr-25 23:30N 54°03' E 011°25'510.0
2018-Apr-25 22:59N 54°08' E 011°26'1310.8
2018-Apr-25 21:48N 54°21' E 011°23'311.0
2018-Apr-25 21:30N 54°24' E 011°22'611.1
2018-Apr-25 21:00N 54°29' E 011°20'510.9
2018-Apr-25 20:30N 54°33' E 011°14'611.4
2018-Apr-25 20:00N 54°36' E 011°05'510.5
2018-Apr-25 19:30N 54°39' E 010°58'510.7
2018-Apr-25 19:00N 54°43' E 010°52'611.1
2018-Apr-25 18:30N 54°49' E 010°52'611.8
2018-Apr-25 18:00N 54°55' E 010°53'611.4
2018-Apr-25 17:30N 54°59' E 011°00'611.7
2018-Apr-25 17:00N 55°05' E 011°02'611.4
2018-Apr-25 16:30N 55°10' E 011°03'131 2.7
2018-Apr-23 15:50N 57°21' E 010°42'3 8.6
2018-Apr-23 15:31N 57°24' E 010°43'5 9.6
2018-Apr-23 15:01N 57°29' E 010°43'510.0
2018-Apr-23 14:31N 57°34' E 010°43'510.1
2018-Apr-23 14:01N 57°39' E 010°44'5 9.6
2018-Apr-23 13:30N 57°44' E 010°45'4 7.8
2018-Apr-23 13:00N 57°46' E 010°40'1110.3
2018-Apr-23 11:54N 57°44' E 010°19'1010.6
2018-Apr-23 10:57N 57°40' E 010°02'17810.0
2018-Apr-22 17:12N 55°24' E 006°31'310.3
2018-Apr-22 16:54N 55°22' E 006°29'510.3
2018-Apr-22 16:28N 55°18' E 006°24'148 9.9
2018-Apr-22 01:37N 53°07' E 004°27'1 9.0
2018-Apr-22 01:31N 53°06' E 004°26'5 9.4
2018-Apr-22 01:00N 53°02' E 004°22'5 9.2
2018-Apr-22 00:28N 52°58' E 004°18'5 9.6
2018-Apr-21 23:58N 52°54' E 004°15'8 9.7
2018-Apr-21 23:08N 52°47' E 004°07'1 9.7
2018-Apr-21 23:00N 52°46' E 004°06'510.0
2018-Apr-21 22:29N 52°42' E 004°00'510.1
2018-Apr-21 22:00N 52°38' E 003°55'510.4
2018-Apr-21 21:28N 52°34' E 003°49'510.5
2018-Apr-21 20:59N 52°30' E 003°43'510.7
2018-Apr-21 20:30N 52°27' E 003°37'510.8
2018-Apr-21 20:00N 52°23' E 003°31'5711.3
2018-Apr-21 14:56N 51°40' E 002°31'410.2
2018-Apr-21 14:31N 51°36' E 002°27'5 9.7
2018-Apr-21 13:59N 51°32' E 002°21'4 9.1
2018-Apr-21 13:30N 51°29' E 002°17'4 9.0
2018-Apr-21 13:01N 51°25' E 002°13'4 8.3
2018-Apr-21 12:30N 51°22' E 002°10'4 8.2
2018-Apr-21 12:01N 51°18' E 002°06'4 7.8
2018-Apr-21 11:31N 51°15' E 002°03'4 7.2
2018-Apr-21 11:00N 51°12' E 001°59'4 7.5
2018-Apr-21 10:30N 51°10' E 001°54'4 7.5
2018-Apr-21 10:01N 51°08' E 001°49'4 7.5
2018-Apr-21 09:30N 51°05' E 001°45'4 7.5
2018-Apr-21 09:01N 51°03' E 001°41'4 8.0
2018-Apr-21 08:29N 50°60' E 001°36'4 8.4
2018-Apr-21 08:01N 50°57' E 001°32'5 9.1
2018-Apr-21 07:31N 50°53' E 001°28'5 9.6
2018-Apr-21 07:00N 50°48' E 001°26'5 9.9
2018-Apr-21 06:30N 50°44' E 001°22'5 9.5
2018-Apr-21 06:00N 50°40' E 001°17'710.0
2018-Apr-21 05:18N 50°35' E 001°09'310.0
2018-Apr-21 05:00N 50°33' E 001°06'5 9.9
2018-Apr-21 04:31N 50°30' E 000°60'6 9.9
2018-Apr-21 03:55N 50°29' E 000°51'810.0
2018-Apr-21 03:07N 50°26' E 000°39'210.1
2018-Apr-21 02:58N 50°26' E 000°36'910.4
2018-Apr-21 02:06N 50°23' E 000°23'110.7
2018-Apr-21 02:01N 50°23' E 000°21'711.1
2018-Apr-21 01:24N 50°22' E 000°11'511.6
2018-Apr-21 00:59N 50°20' E 000°04'612.0
2018-Apr-21 00:30N 50°18' W 000°04'612.3
2018-Apr-21 00:01N 50°17' W 000°14'712.7
2018-Apr-20 23:30N 50°15' W 000°23'612.8
2018-Apr-20 23:01N 50°13' W 000°33'612.8
2018-Apr-20 22:30N 50°11' W 000°42'612.6
2018-Apr-20 22:00N 50°09' W 000°52'612.2
2018-Apr-20 21:29N 50°08' W 001°01'611.7
2018-Apr-20 21:00N 50°06' W 001°10'611.0
2018-Apr-20 20:30N 50°05' W 001°18'510.2
2018-Apr-20 20:00N 50°03' W 001°26'5 9.3
2018-Apr-20 19:30N 50°02' W 001°33'4 8.6
2018-Apr-20 19:00N 50°01' W 001°39'4 7.7
2018-Apr-20 18:30N 49°60' W 001°45'4 7.0
2018-Apr-20 18:00N 49°59' W 001°50'3 6.4
2018-Apr-20 17:31N 49°58' W 001°55'4 5.9
2018-Apr-20 16:49N 49°57' W 002°01'5 5.9
2018-Apr-20 16:01N 49°55' W 002°08'0 6.1
2018-Apr-20 16:00N 49°55' W 002°08'9 7.3
2018-Apr-20 14:49N 49°53' W 002°21'3 8.7
2018-Apr-20 14:27N 49°52' W 002°26'5 9.2
2018-Apr-20 13:56N 49°51' W 002°33'7 9.8
2018-Apr-20 13:13N 49°49' W 002°43'210.0
2018-Apr-20 13:01N 49°48' W 002°46'610.1
2018-Apr-20 12:26N 49°46' W 002°55'510.5
2018-Apr-20 11:58N 49°43' W 003°01'510.5
2018-Apr-20 11:30N 49°40' W 003°07'510.6
2018-Apr-20 11:01N 49°37' W 003°13'510.7
2018-Apr-20 10:30N 49°33' W 003°20'910.9
2018-Apr-20 09:42N 49°28' W 003°31'611.0
2018-Apr-20 09:11N 49°25' W 003°38'3811.3
2018-Apr-20 05:47N 49°02' W 004°25'60 7.8
2018-Apr-19 22:03N 48°12' W 005°16'0 8.7
2018-Apr-19 22:01N 48°12' W 005°15'22 8.3
2018-Apr-19 19:25N 47°51' W 005°06'4 9.0
2018-Apr-19 18:58N 47°47' W 005°04'77 9.5
2018-Apr-19 10:52N 46°33' W 004°30'4 9.9
2018-Apr-19 10:29N 46°30' W 004°28'5 9.6
2018-Apr-19 09:59N 46°25' W 004°27'186 9.4
2018-Apr-18 14:13N 43°27' W 003°07'  
Track history (hours):
 
Tides and Currents Weather Stations Pressure Air Temp Water Temp Dewpoint Dewpoint Depression Visibility Wind Speed Wind Dir Waves Ship Positions

Arklow Spray

Last reported at 2018-Apr-26 09:25 UTC. Time now 2018-Apr-26 09:43 UTC.
Position N 53°54' E 011°28'.

Length 90 m; draft 2.7 m.

Type: Cargo ship. MMSI: 309914000.

Date/timePositionNaut miles runAvg speedWind from/ knotsBaromVisibWave heightAir tempDewpointWater temp
2018-Apr-26 09:25N 53°54' E 011°28'0 0.0
2018-Apr-26 08:58N 53°54' E 011°28'0 0.0
2018-Apr-26 08:28N 53°54' E 011°28'0 0.0
2018-Apr-26 07:58N 53°54' E 011°28'0 0.0
2018-Apr-26 07:28N 53°54' E 011°28'0 0.0
2018-Apr-26 06:58N 53°54' E 011°28'0 0.0
2018-Apr-26 06:28N 53°54' E 011°28'0 0.0
2018-Apr-26 05:58N 53°54' E 011°28'0 0.0
2018-Apr-26 05:28N 53°54' E 011°28'0 0.0
2018-Apr-26 04:58N 53°54' E 011°28'0 0.0
2018-Apr-26 04:28N 53°54' E 011°28'0 0.0
2018-Apr-26 03:58N 53°54' E 011°28'0 0.0
2018-Apr-26 03:28N 53°54' E 011°28'0 0.0
2018-Apr-26 02:58N 53°54' E 011°28'0 0.0
2018-Apr-26 02:28N 53°54' E 011°28'0 0.0
2018-Apr-26 01:58N 53°54' E 011°28'0 0.0
2018-Apr-26 01:30N 53°54' E 011°28'0 0.0
2018-Apr-26 01:00N 53°54' E 011°28'1 1.6
2018-Apr-26 00:30N 53°54' E 011°27'5 9.7
2018-Apr-26 00:00N 53°58' E 011°22'510.0
2018-Apr-25 23:30N 54°03' E 011°25'510.0
2018-Apr-25 22:59N 54°08' E 011°26'1310.8
2018-Apr-25 21:48N 54°21' E 011°23'311.0
2018-Apr-25 21:30N 54°24' E 011°22'611.1
2018-Apr-25 21:00N 54°29' E 011°20'510.9
2018-Apr-25 20:30N 54°33' E 011°14'611.4
2018-Apr-25 20:00N 54°36' E 011°05'510.5
2018-Apr-25 19:30N 54°39' E 010°58'510.7
2018-Apr-25 19:00N 54°43' E 010°52'611.1
2018-Apr-25 18:30N 54°49' E 010°52'611.8
2018-Apr-25 18:00N 54°55' E 010°53'611.4
2018-Apr-25 17:30N 54°59' E 011°00'611.7
2018-Apr-25 17:00N 55°05' E 011°02'611.4
2018-Apr-25 16:30N 55°10' E 011°03'131 2.7
2018-Apr-23 15:50N 57°21' E 010°42'3 8.6
2018-Apr-23 15:31N 57°24' E 010°43'5 9.6
2018-Apr-23 15:01N 57°29' E 010°43'510.0
2018-Apr-23 14:31N 57°34' E 010°43'510.1
2018-Apr-23 14:01N 57°39' E 010°44'5 9.6
2018-Apr-23 13:30N 57°44' E 010°45'4 7.8
2018-Apr-23 13:00N 57°46' E 010°40'1110.3
2018-Apr-23 11:54N 57°44' E 010°19'1010.6
2018-Apr-23 10:57N 57°40' E 010°02'17810.0
2018-Apr-22 17:12N 55°24' E 006°31'310.3
2018-Apr-22 16:54N 55°22' E 006°29'510.3
2018-Apr-22 16:28N 55°18' E 006°24'148 9.9
2018-Apr-22 01:37N 53°07' E 004°27'1 9.0
2018-Apr-22 01:31N 53°06' E 004°26'5 9.4
2018-Apr-22 01:00N 53°02' E 004°22'5 9.2
2018-Apr-22 00:28N 52°58' E 004°18'5 9.6
2018-Apr-21 23:58N 52°54' E 004°15'8 9.7
2018-Apr-21 23:08N 52°47' E 004°07'1 9.7
2018-Apr-21 23:00N 52°46' E 004°06'510.0
2018-Apr-21 22:29N 52°42' E 004°00'510.1
2018-Apr-21 22:00N 52°38' E 003°55'510.4
2018-Apr-21 21:28N 52°34' E 003°49'510.5
2018-Apr-21 20:59N 52°30' E 003°43'510.7
2018-Apr-21 20:30N 52°27' E 003°37'510.8
2018-Apr-21 20:00N 52°23' E 003°31'5711.3
2018-Apr-21 14:56N 51°40' E 002°31'410.2
2018-Apr-21 14:31N 51°36' E 002°27'5 9.7
2018-Apr-21 13:59N 51°32' E 002°21'4 9.1
2018-Apr-21 13:30N 51°29' E 002°17'4 9.0
2018-Apr-21 13:01N 51°25' E 002°13'4 8.3
2018-Apr-21 12:30N 51°22' E 002°10'4 8.2
2018-Apr-21 12:01N 51°18' E 002°06'4 7.8
2018-Apr-21 11:31N 51°15' E 002°03'4 7.2
2018-Apr-21 11:00N 51°12' E 001°59'4 7.5
2018-Apr-21 10:30N 51°10' E 001°54'4 7.5
2018-Apr-21 10:01N 51°08' E 001°49'4 7.5
2018-Apr-21 09:30N 51°05' E 001°45'4 7.5
2018-Apr-21 09:01N 51°03' E 001°41'4 8.0
2018-Apr-21 08:29N 50°60' E 001°36'4 8.4
2018-Apr-21 08:01N 50°57' E 001°32'5 9.1
2018-Apr-21 07:31N 50°53' E 001°28'5 9.6
2018-Apr-21 07:00N 50°48' E 001°26'5 9.9
2018-Apr-21 06:30N 50°44' E 001°22'5 9.5
2018-Apr-21 06:00N 50°40' E 001°17'710.0
2018-Apr-21 05:18N 50°35' E 001°09'310.0
2018-Apr-21 05:00N 50°33' E 001°06'5 9.9
2018-Apr-21 04:31N 50°30' E 000°60'6 9.9
2018-Apr-21 03:55N 50°29' E 000°51'810.0
2018-Apr-21 03:07N 50°26' E 000°39'210.1
2018-Apr-21 02:58N 50°26' E 000°36'910.4
2018-Apr-21 02:06N 50°23' E 000°23'110.7
2018-Apr-21 02:01N 50°23' E 000°21'711.1
2018-Apr-21 01:24N 50°22' E 000°11'511.6
2018-Apr-21 00:59N 50°20' E 000°04'612.0
2018-Apr-21 00:30N 50°18' W 000°04'612.3
2018-Apr-21 00:01N 50°17' W 000°14'712.7
2018-Apr-20 23:30N 50°15' W 000°23'612.8
2018-Apr-20 23:01N 50°13' W 000°33'612.8
2018-Apr-20 22:30N 50°11' W 000°42'612.6
2018-Apr-20 22:00N 50°09' W 000°52'612.2
2018-Apr-20 21:29N 50°08' W 001°01'611.7
2018-Apr-20 21:00N 50°06' W 001°10'611.0
2018-Apr-20 20:30N 50°05' W 001°18'510.2
2018-Apr-20 20:00N 50°03' W 001°26'5 9.3
2018-Apr-20 19:30N 50°02' W 001°33'4 8.6
2018-Apr-20 19:00N 50°01' W 001°39'4 7.7
2018-Apr-20 18:30N 49°60' W 001°45'4 7.0
2018-Apr-20 18:00N 49°59' W 001°50'3 6.4
2018-Apr-20 17:31N 49°58' W 001°55'4 5.9
2018-Apr-20 16:49N 49°57' W 002°01'5 5.9
2018-Apr-20 16:01N 49°55' W 002°08'0 6.1
2018-Apr-20 16:00N 49°55' W 002°08'9 7.3
2018-Apr-20 14:49N 49°53' W 002°21'3 8.7
2018-Apr-20 14:27N 49°52' W 002°26'5 9.2
2018-Apr-20 13:56N 49°51' W 002°33'7 9.8
2018-Apr-20 13:13N 49°49' W 002°43'210.0
2018-Apr-20 13:01N 49°48' W 002°46'610.1
2018-Apr-20 12:26N 49°46' W 002°55'510.5
2018-Apr-20 11:58N 49°43' W 003°01'510.5
2018-Apr-20 11:30N 49°40' W 003°07'510.6
2018-Apr-20 11:01N 49°37' W 003°13'510.7
2018-Apr-20 10:30N 49°33' W 003°20'910.9
2018-Apr-20 09:42N 49°28' W 003°31'611.0
2018-Apr-20 09:11N 49°25' W 003°38'3811.3
2018-Apr-20 05:47N 49°02' W 004°25'60 7.8
2018-Apr-19 22:03N 48°12' W 005°16'0 8.7
2018-Apr-19 22:01N 48°12' W 005°15'22 8.3
2018-Apr-19 19:25N 47°51' W 005°06'4 9.0
2018-Apr-19 18:58N 47°47' W 005°04'77 9.5
2018-Apr-19 10:52N 46°33' W 004°30'4 9.9
2018-Apr-19 10:29N 46°30' W 004°28'5 9.6
2018-Apr-19 09:59N 46°25' W 004°27'186 9.4
2018-Apr-18 14:13N 43°27' W 003°07'  

Dump ship's entire track history